Time;durP1;ratioP1;P1;durP2;ratioP2;P2;SDS_P1;SDS_P2;PMS_P1;PMS_P2;Temp;Humidity;BMP_temperature;BMP_pressure;BME280_temperature;BME280_humidity;BME280_pressure;Samples;Min_cycle;Max_cycle;Signal;HPM_P1;HPM_P2
2024/03/12 00:00:40;;;;;;;28.47;27.27;;;;;;;;;;5023372;28;20540;-71
2024/03/12 00:03:09;;;;;;;29.03;27.73;;;;;;;;;;5023713;28;20485;-71
2024/03/12 00:05:36;;;;;;;31.07;29.67;;;;;;;;;;5026750;28;20461;-71
2024/03/12 00:08:05;;;;;;;29.33;28.03;;;;;;;;;;5023134;28;20478;-71
2024/03/12 00:10:33;;;;;;;27.60;26.40;;;;;;;;;;5027856;28;20503;-71
2024/03/12 00:13:01;;;;;;;28.73;27.53;;;;;;;;;;5028651;28;20471;-71
2024/03/12 00:15:29;;;;;;;26.93;25.80;;;;;;;;;;5022094;28;20465;-71
2024/03/12 00:17:56;;;;;;;27.10;25.90;;;;;;;;;;5029177;28;20472;-71
2024/03/12 00:20:29;;;;;;;27.03;25.90;;;;;;;;;;5018746;28;20989;-72
2024/03/12 00:22:57;;;;;;;26.30;25.20;;;;;;;;;;5027749;28;20464;-73
2024/03/12 00:25:26;;;;;;;26.20;25.10;;;;;;;;;;5028376;28;20473;-72
2024/03/12 00:27:54;;;;;;;26.10;25.00;;;;;;;;;;5023601;28;20978;-72
2024/03/12 00:30:24;;;;;;;27.17;25.97;;;;;;;;;;5024786;28;20481;-72
2024/03/12 00:32:54;;;;;;;27.07;25.87;;;;;;;;;;5024838;28;20742;-72
2024/03/12 00:35:23;;;;;;;25.90;24.80;;;;;;;;;;5030813;28;20461;-74
2024/03/12 00:37:50;;;;;;;25.93;24.83;;;;;;;;;;5030091;28;20467;-74
2024/03/12 00:40:20;;;;;;;25.53;24.43;;;;;;;;;;5027397;28;20469;-71
2024/03/12 00:42:50;;;;;;;26.40;25.30;;;;;;;;;;5025416;28;20461;-72
2024/03/12 00:45:25;;;;;;;26.70;25.60;;;;;;;;;;5023245;28;20501;-71
2024/03/12 00:47:53;;;;;;;27.43;26.23;;;;;;;;;;5028906;28;20488;-72
2024/03/12 00:50:21;;;;;;;27.37;26.17;;;;;;;;;;5030279;28;20480;-71
2024/03/12 00:52:52;;;;;;;28.20;26.97;;;;;;;;;;5022952;28;20461;-72
2024/03/12 00:55:20;;;;;;;28.97;27.67;;;;;;;;;;5028760;28;20856;-74
2024/03/12 00:57:50;;;;;;;28.63;27.37;;;;;;;;;;5031803;28;20990;-73
2024/03/12 01:00:25;;;;;;;26.87;25.70;;;;;;;;;;5003552;28;20473;-72
2024/03/12 01:02:53;;;;;;;28.07;26.87;;;;;;;;;;4996037;28;20929;-72
2024/03/12 01:05:21;;;;;;;26.93;25.83;;;;;;;;;;4994990;28;20924;-72
2024/03/12 01:07:49;;;;;;;27.23;26.13;;;;;;;;;;4994560;28;20473;-72
2024/03/12 01:10:20;;;;;;;28.53;27.33;;;;;;;;;;4997126;28;20474;-72
2024/03/12 01:12:48;;;;;;;27.27;26.17;;;;;;;;;;4993873;28;21048;-72
2024/03/12 01:15:18;;;;;;;27.80;26.60;;;;;;;;;;4995223;28;20479;-71
2024/03/12 01:17:45;;;;;;;28.33;27.03;;;;;;;;;;4994658;28;21058;-72
2024/03/12 01:20:16;;;;;;;28.50;27.20;;;;;;;;;;4995208;28;20790;-71
2024/03/12 01:22:44;;;;;;;28.10;26.90;;;;;;;;;;4994178;28;20935;-71
2024/03/12 01:25:11;;;;;;;26.83;25.67;;;;;;;;;;4994374;28;20462;-73
2024/03/12 01:27:39;;;;;;;27.47;26.27;;;;;;;;;;4993297;28;20476;-72
2024/03/12 01:30:07;;;;;;;27.97;26.77;;;;;;;;;;4994521;28;21076;-73
2024/03/12 01:32:36;;;;;;;27.67;26.47;;;;;;;;;;4993877;28;20488;-73
2024/03/12 01:35:04;;;;;;;28.03;26.83;;;;;;;;;;4993899;28;20453;-71
2024/03/12 01:37:31;;;;;;;27.40;26.20;;;;;;;;;;4994794;28;20474;-72
2024/03/12 01:39:58;;;;;;;28.30;27.00;;;;;;;;;;4992888;28;20959;-72
2024/03/12 01:42:25;;;;;;;27.53;26.33;;;;;;;;;;4990844;28;20976;-73
2024/03/12 01:44:55;;;;;;;28.73;27.43;;;;;;;;;;4993675;28;20474;-73
2024/03/12 01:47:24;;;;;;;28.83;27.53;;;;;;;;;;4992149;28;20472;-75
2024/03/12 01:49:53;;;;;;;28.47;27.17;;;;;;;;;;4991900;28;21220;-72
2024/03/12 01:52:23;;;;;;;28.37;27.07;;;;;;;;;;4993518;28;20500;-72
2024/03/12 01:54:51;;;;;;;28.83;27.53;;;;;;;;;;4993366;28;20640;-75
2024/03/12 01:57:18;;;;;;;28.83;27.53;;;;;;;;;;4992489;28;21274;-72
2024/03/12 01:59:45;;;;;;;27.53;26.33;;;;;;;;;;5003183;28;20879;-74
2024/03/12 02:02:18;;;;;;;28.97;27.67;;;;;;;;;;5028391;28;21011;-71
2024/03/12 02:04:45;;;;;;;29.07;27.77;;;;;;;;;;5029444;28;20464;-73
2024/03/12 02:07:14;;;;;;;28.70;27.47;;;;;;;;;;5022967;28;20469;-72
2024/03/12 02:09:43;;;;;;;27.47;26.27;;;;;;;;;;5023594;28;20465;-72
2024/03/12 02:12:10;;;;;;;28.17;26.97;;;;;;;;;;5019635;28;20571;-72
2024/03/12 02:14:38;;;;;;;26.53;25.43;;;;;;;;;;5026793;28;20920;-72
2024/03/12 02:17:06;;;;;;;26.60;25.50;;;;;;;;;;5025775;28;20482;-71
2024/03/12 02:19:34;;;;;;;26.13;25.03;;;;;;;;;;5015587;28;20461;-74
2024/03/12 02:22:01;;;;;;;27.70;26.50;;;;;;;;;;5024235;28;20469;-71
2024/03/12 02:24:30;;;;;;;29.30;28.00;;;;;;;;;;5019877;28;20475;-71
2024/03/12 02:26:57;;;;;;;31.00;29.60;;;;;;;;;;5021019;28;20475;-70
2024/03/12 02:29:24;;;;;;;28.90;27.60;;;;;;;;;;5027096;28;20461;-70
2024/03/12 02:31:52;;;;;;;27.03;25.83;;;;;;;;;;5026806;28;20492;-73
2024/03/12 02:34:20;;;;;;;27.63;26.43;;;;;;;;;;5022585;28;20461;-71
2024/03/12 02:36:47;;;;;;;27.07;25.87;;;;;;;;;;5012744;28;20477;-73
2024/03/12 02:39:14;;;;;;;28.00;26.80;;;;;;;;;;5027185;28;20469;-72
2024/03/12 02:41:43;;;;;;;27.23;26.03;;;;;;;;;;5025033;28;20470;-72
2024/03/12 02:44:12;;;;;;;26.50;25.40;;;;;;;;;;5020102;28;20469;-74
2024/03/12 02:46:40;;;;;;;25.37;24.37;;;;;;;;;;5021872;28;20461;-73
2024/03/12 02:49:09;;;;;;;23.97;23.07;;;;;;;;;;5011249;28;20466;-74
2024/03/12 02:51:36;;;;;;;23.60;22.70;;;;;;;;;;5019549;28;20493;-72
2024/03/12 02:54:04;;;;;;;23.20;22.30;;;;;;;;;;5021993;28;21006;-75
2024/03/12 02:56:33;;;;;;;23.20;22.30;;;;;;;;;;5027495;28;20467;-74
2024/03/12 02:59:01;;;;;;;23.83;22.93;;;;;;;;;;5019894;28;20560;-72
2024/03/12 03:01:28;;;;;;;23.73;22.83;;;;;;;;;;5026227;28;20485;-73
2024/03/12 03:03:57;;;;;;;22.53;21.63;;;;;;;;;;5018098;28;20462;-74
2024/03/12 03:06:24;;;;;;;23.57;22.67;;;;;;;;;;5019462;28;20461;-74
2024/03/12 03:08:51;;;;;;;24.00;23.00;;;;;;;;;;5021292;28;20476;-72
2024/03/12 03:11:19;;;;;;;24.73;23.73;;;;;;;;;;5022644;28;20570;-74
2024/03/12 03:13:46;;;;;;;24.10;23.20;;;;;;;;;;5027476;28;20461;-73
2024/03/12 03:16:15;;;;;;;24.13;23.23;;;;;;;;;;5022100;28;20664;-72
2024/03/12 03:18:42;;;;;;;24.10;23.20;;;;;;;;;;5021357;28;20890;-71
2024/03/12 03:21:09;;;;;;;24.77;23.77;;;;;;;;;;5025113;28;20474;-73
2024/03/12 03:23:41;;;;;;;24.07;23.17;;;;;;;;;;5021157;28;20472;-72
2024/03/12 03:26:08;;;;;;;23.80;22.90;;;;;;;;;;5029389;28;20914;-72
2024/03/12 03:28:35;;;;;;;24.57;23.60;;;;;;;;;;5021498;28;21069;-72
2024/03/12 03:31:03;;;;;;;24.23;23.33;;;;;;;;;;5022297;28;20460;-72
2024/03/12 03:33:32;;;;;;;23.50;22.60;;;;;;;;;;5030746;28;20492;-72
2024/03/12 03:35:59;;;;;;;24.67;23.67;;;;;;;;;;5027103;28;20825;-73
2024/03/12 03:38:27;;;;;;;24.43;23.43;;;;;;;;;;5020608;28;20469;-73
2024/03/12 03:40:55;;;;;;;24.00;23.10;;;;;;;;;;5021128;28;20846;-74
2024/03/12 03:43:22;;;;;;;24.17;23.23;;;;;;;;;;5026280;28;20461;-72
2024/03/12 03:45:49;;;;;;;24.33;23.33;;;;;;;;;;5017421;28;20461;-71
2024/03/12 03:48:16;;;;;;;25.60;24.60;;;;;;;;;;5027203;28;20468;-71
2024/03/12 03:50:45;;;;;;;26.03;24.93;;;;;;;;;;5026964;28;20465;-71
2024/03/12 03:53:12;;;;;;;28.07;26.87;;;;;;;;;;5023257;28;20504;-72
2024/03/12 03:55:40;;;;;;;28.13;26.93;;;;;;;;;;5025874;28;20461;-72
2024/03/12 03:58:07;;;;;;;28.30;27.00;;;;;;;;;;5017041;28;20504;-72
2024/03/12 04:00:35;;;;;;;28.43;27.13;;;;;;;;;;5020645;28;20961;-76
2024/03/12 04:03:04;;;;;;;27.80;26.60;;;;;;;;;;5021676;28;20469;-72
2024/03/12 04:05:32;;;;;;;26.40;25.27;;;;;;;;;;5026468;28;20471;-75
2024/03/12 04:08:01;;;;;;;27.10;25.90;;;;;;;;;;5021437;28;20465;-73
2024/03/12 04:10:30;;;;;;;27.13;25.93;;;;;;;;;;5018766;28;20458;-73
2024/03/12 04:12:57;;;;;;;27.00;25.83;;;;;;;;;;5022095;28;20642;-74
2024/03/12 04:15:28;;;;;;;25.80;24.70;;;;;;;;;;5019401;28;20473;-72
2024/03/12 04:17:55;;;;;;;25.07;24.00;;;;;;;;;;5024684;28;21006;-73
2024/03/12 04:20:22;;;;;;;26.67;25.57;;;;;;;;;;5020419;28;20472;-73
2024/03/12 04:22:50;;;;;;;27.63;26.43;;;;;;;;;;5022813;28;20840;-75
2024/03/12 04:25:19;;;;;;;26.50;25.40;;;;;;;;;;5018171;28;20470;-71
2024/03/12 04:27:46;;;;;;;25.00;24.00;;;;;;;;;;5015847;28;20465;-72
2024/03/12 04:30:14;;;;;;;26.20;25.10;;;;;;;;;;5018654;28;20484;-72
2024/03/12 04:32:43;;;;;;;27.30;26.17;;;;;;;;;;5021579;28;21007;-73
2024/03/12 04:35:12;;;;;;;27.70;26.50;;;;;;;;;;5018112;28;20462;-72
2024/03/12 04:37:40;;;;;;;27.47;26.27;;;;;;;;;;5019921;28;20492;-72
2024/03/12 04:40:07;;;;;;;26.23;25.13;;;;;;;;;;5027414;28;20503;-71
2024/03/12 04:42:37;;;;;;;25.93;24.83;;;;;;;;;;5024912;28;20601;-72
2024/03/12 04:45:05;;;;;;;26.90;25.70;;;;;;;;;;5019126;28;20465;-72
2024/03/12 04:47:33;;;;;;;26.07;24.97;;;;;;;;;;5020372;28;20465;-71
2024/03/12 04:50:00;;;;;;;26.03;24.93;;;;;;;;;;5029786;28;20468;-72
2024/03/12 04:52:28;;;;;;;27.73;26.53;;;;;;;;;;5030376;28;20500;-70
2024/03/12 04:54:56;;;;;;;27.67;26.37;;;;;;;;;;5023360;28;20500;-71
2024/03/12 04:57:24;;;;;;;27.93;26.63;;;;;;;;;;5025800;28;20505;-71
2024/03/12 04:59:54;;;;;;;27.90;26.60;;;;;;;;;;5027548;28;20469;-71
2024/03/12 05:02:21;;;;;;;27.03;25.83;;;;;;;;;;5022475;28;20583;-71
2024/03/12 05:04:48;;;;;;;27.03;25.83;;;;;;;;;;5025521;28;20483;-72
2024/03/12 05:07:16;;;;;;;28.10;26.80;;;;;;;;;;5027276;28;20469;-72
2024/03/12 05:09:43;;;;;;;27.30;26.10;;;;;;;;;;5025464;28;20465;-71
2024/03/12 05:12:10;;;;;;;26.33;25.13;;;;;;;;;;5022536;28;20513;-71
2024/03/12 05:14:37;;;;;;;28.20;26.90;;;;;;;;;;5020673;28;20845;-72
2024/03/12 05:17:06;;;;;;;28.30;27.00;;;;;;;;;;5023077;28;20522;-71
2024/03/12 05:19:33;;;;;;;28.63;27.33;;;;;;;;;;5028770;28;20500;-71
2024/03/12 05:22:02;;;;;;;28.50;27.20;;;;;;;;;;5028387;28;21010;-71
2024/03/12 05:24:31;;;;;;;26.90;25.70;;;;;;;;;;5022510;28;21042;-71
2024/03/12 05:26:59;;;;;;;28.10;26.90;;;;;;;;;;5024788;28;20464;-71
2024/03/12 05:29:36;;;;;;;28.90;27.60;;;;;;;;;;5026568;28;20468;-72
2024/03/12 05:32:17;;;;;;;28.50;27.20;;;;;;;;;;5020496;28;20777;-71
2024/03/12 05:34:45;;;;;;;28.80;27.50;;;;;;;;;;5023676;28;20596;-72
2024/03/12 05:37:28;;;;;;;30.00;28.60;;;;;;;;;;5020407;28;20505;-71
2024/03/12 05:40:11;;;;;;;29.30;27.93;;;;;;;;;;5028227;28;20864;-71
2024/03/12 05:48:09;;;;;;;28.93;27.63;;;;;;;;;;5022672;28;21025;-72
2024/03/12 05:50:37;;;;;;;29.60;28.20;;;;;;;;;;5017098;28;20455;-73
2024/03/12 05:53:04;;;;;;;28.27;26.97;;;;;;;;;;5023049;28;20493;-73
2024/03/12 05:55:33;;;;;;;29.17;27.87;;;;;;;;;;5024591;28;20766;-73
2024/03/12 05:58:00;;;;;;;29.77;28.37;;;;;;;;;;5009708;28;20485;-70
2024/03/12 06:00:27;;;;;;;29.63;28.23;;;;;;;;;;5024957;28;21022;-72
2024/03/12 06:02:55;;;;;;;29.63;28.23;;;;;;;;;;5021002;28;20470;-70
2024/03/12 06:05:22;;;;;;;29.37;27.97;;;;;;;;;;5020747;28;20466;-74
2024/03/12 06:07:52;;;;;;;30.27;28.87;;;;;;;;;;5024892;28;20475;-73
2024/03/12 06:10:20;;;;;;;30.57;29.17;;;;;;;;;;5022651;28;20457;-70
2024/03/12 06:12:47;;;;;;;29.67;28.27;;;;;;;;;;5025069;28;20540;-72
2024/03/12 06:15:16;;;;;;;30.40;29.00;;;;;;;;;;5020450;28;20475;-72
2024/03/12 06:17:43;;;;;;;30.83;29.33;;;;;;;;;;5018399;28;20802;-74
2024/03/12 06:20:12;;;;;;;32.30;30.70;;;;;;;;;;5021564;28;20465;-72
2024/03/12 06:22:40;;;;;;;32.43;30.83;;;;;;;;;;5022343;28;20464;-71
2024/03/12 06:25:10;;;;;;;32.47;30.87;;;;;;;;;;5019639;28;20469;-70
2024/03/12 06:27:37;;;;;;;33.07;31.37;;;;;;;;;;5022370;28;20475;-72
2024/03/12 06:30:05;;;;;;;33.07;31.37;;;;;;;;;;5022279;28;20472;-71
2024/03/12 06:32:33;;;;;;;33.07;31.37;;;;;;;;;;5023591;28;20489;-71
2024/03/12 06:35:01;;;;;;;32.00;30.30;;;;;;;;;;5023749;28;20496;-72
2024/03/12 06:37:28;;;;;;;32.50;30.90;;;;;;;;;;5025712;28;20457;-72
2024/03/12 06:39:57;;;;;;;32.17;30.50;;;;;;;;;;5018772;28;20995;-72
2024/03/12 06:42:29;;;;;;;31.67;30.07;;;;;;;;;;5019435;28;20892;-73
2024/03/12 06:44:56;;;;;;;31.17;29.67;;;;;;;;;;5020449;28;20463;-74
2024/03/12 06:47:25;;;;;;;30.30;28.80;;;;;;;;;;5026450;28;20465;-72
2024/03/12 06:49:54;;;;;;;30.83;29.23;;;;;;;;;;5016575;28;20473;-74
2024/03/12 06:52:22;;;;;;;32.60;30.90;;;;;;;;;;5017413;28;20465;-72
2024/03/12 06:54:50;;;;;;;31.57;29.87;;;;;;;;;;5012133;28;20493;-72
2024/03/12 06:57:19;;;;;;;31.03;29.43;;;;;;;;;;5022228;28;20492;-72
2024/03/12 06:59:48;;;;;;;30.97;29.37;;;;;;;;;;5025152;28;20933;-73
2024/03/12 07:02:16;;;;;;;30.67;29.07;;;;;;;;;;5026376;28;20481;-74
2024/03/12 07:04:47;;;;;;;31.33;29.73;;;;;;;;;;5020902;28;20828;-71
2024/03/12 07:07:18;;;;;;;30.93;29.33;;;;;;;;;;5024380;28;20462;-71
2024/03/12 07:09:46;;;;;;;30.57;28.97;;;;;;;;;;5019933;28;20476;-71
2024/03/12 07:12:16;;;;;;;29.97;28.47;;;;;;;;;;5020538;28;20465;-71
2024/03/12 07:14:45;;;;;;;30.60;29.10;;;;;;;;;;5026025;28;20461;-71
2024/03/12 07:17:14;;;;;;;30.90;29.30;;;;;;;;;;5019787;28;20539;-71
2024/03/12 07:19:42;;;;;;;30.57;29.07;;;;;;;;;;5020039;28;20551;-72
2024/03/12 07:22:10;;;;;;;31.13;29.53;;;;;;;;;;5022605;28;20586;-71
2024/03/12 07:24:37;;;;;;;29.70;28.20;;;;;;;;;;5026500;28;20488;-72
2024/03/12 07:27:05;;;;;;;29.70;28.23;;;;;;;;;;5015521;28;20493;-71
2024/03/12 07:29:33;;;;;;;27.83;26.43;;;;;;;;;;5016517;28;20480;-71
2024/03/12 07:32:03;;;;;;;29.20;27.80;;;;;;;;;;5019044;28;20473;-71
2024/03/12 07:34:31;;;;;;;27.80;26.50;;;;;;;;;;5017294;28;20571;-71
2024/03/12 07:36:59;;;;;;;28.57;27.27;;;;;;;;;;5024475;28;20470;-71
2024/03/12 07:39:31;;;;;;;27.67;26.37;;;;;;;;;;5015557;28;20560;-71
2024/03/12 07:41:58;;;;;;;27.60;26.30;;;;;;;;;;5026481;28;20460;-72
2024/03/12 07:44:24;;;;;;;28.40;27.00;;;;;;;;;;5013813;28;20464;-72
2024/03/12 07:46:52;;;;;;;28.67;27.27;;;;;;;;;;5023671;28;20456;-71
2024/03/12 07:49:22;;;;;;;28.20;26.80;;;;;;;;;;5021506;28;20465;-71
2024/03/12 07:51:52;;;;;;;28.43;27.03;;;;;;;;;;5021125;28;20528;-72
2024/03/12 07:54:19;;;;;;;28.57;27.17;;;;;;;;;;5023905;28;20503;-72
2024/03/12 07:56:51;;;;;;;28.70;27.30;;;;;;;;;;5017481;28;20466;-72
2024/03/12 07:59:21;;;;;;;28.63;27.23;;;;;;;;;;5017914;28;20880;-72
2024/03/12 08:01:49;;;;;;;27.30;26.00;;;;;;;;;;5012464;28;20991;-72
2024/03/12 08:04:16;;;;;;;27.80;26.50;;;;;;;;;;5013649;28;20481;-71
2024/03/12 08:06:44;;;;;;;27.10;25.70;;;;;;;;;;5010871;28;20835;-71
2024/03/12 08:09:13;;;;;;;27.87;26.43;;;;;;;;;;5015445;28;20987;-71
2024/03/12 08:11:41;;;;;;;27.63;26.23;;;;;;;;;;5015769;28;20462;-71
2024/03/12 08:14:08;;;;;;;27.00;25.60;;;;;;;;;;5013690;28;21038;-72
2024/03/12 08:16:36;;;;;;;26.83;25.50;;;;;;;;;;5012022;28;20485;-71
2024/03/12 08:19:04;;;;;;;26.37;25.07;;;;;;;;;;5010344;28;20549;-72
2024/03/12 08:21:32;;;;;;;27.37;25.97;;;;;;;;;;5013729;28;20988;-72
2024/03/12 08:24:00;;;;;;;26.03;24.73;;;;;;;;;;5005570;28;20992;-74
2024/03/12 08:26:30;;;;;;;26.47;25.17;;;;;;;;;;4999605;28;20485;-72
2024/03/12 08:28:58;;;;;;;27.10;25.77;;;;;;;;;;5005273;28;20579;-74
2024/03/12 08:31:27;;;;;;;25.13;23.93;;;;;;;;;;5007654;28;20492;-73
2024/03/12 08:33:55;;;;;;;25.93;24.63;;;;;;;;;;5009675;28;20499;-70
2024/03/12 08:36:22;;;;;;;26.50;25.20;;;;;;;;;;5018154;28;20473;-71
2024/03/12 08:38:50;;;;;;;25.90;24.60;;;;;;;;;;5017399;28;20462;-72
2024/03/12 08:41:17;;;;;;;26.00;24.70;;;;;;;;;;5018209;28;20820;-71
2024/03/12 08:43:45;;;;;;;25.83;24.53;;;;;;;;;;5015009;28;20466;-71
2024/03/12 08:46:13;;;;;;;25.83;24.53;;;;;;;;;;5015345;28;20995;-71
2024/03/12 08:48:40;;;;;;;28.03;26.60;;;;;;;;;;5018514;28;20469;-73
2024/03/12 08:51:08;;;;;;;27.60;26.20;;;;;;;;;;5018041;28;20476;-72
2024/03/12 08:53:36;;;;;;;28.63;27.13;;;;;;;;;;5018416;28;20481;-73
2024/03/12 08:56:04;;;;;;;28.27;26.77;;;;;;;;;;5016538;28;20469;-71
2024/03/12 08:58:32;;;;;;;27.33;25.93;;;;;;;;;;5015972;28;20578;-72
2024/03/12 09:01:00;;;;;;;27.77;26.30;;;;;;;;;;5015139;28;20496;-72
2024/03/12 09:03:29;;;;;;;27.00;25.60;;;;;;;;;;5019538;28;20579;-72
2024/03/12 09:05:56;;;;;;;26.50;25.10;;;;;;;;;;5017044;28;20566;-71
2024/03/12 09:08:24;;;;;;;27.57;26.17;;;;;;;;;;5015657;28;21084;-71
2024/03/12 09:10:52;;;;;;;27.53;26.13;;;;;;;;;;5015148;28;20806;-71
2024/03/12 09:13:20;;;;;;;27.23;25.83;;;;;;;;;;5017058;28;20494;-71
2024/03/12 09:15:50;;;;;;;27.10;25.70;;;;;;;;;;5015309;28;20477;-71
2024/03/12 09:18:20;;;;;;;27.77;26.27;;;;;;;;;;5012027;28;20472;-71
2024/03/12 09:20:48;;;;;;;26.90;25.50;;;;;;;;;;5015306;28;20463;-73
2024/03/12 09:23:15;;;;;;;27.07;25.67;;;;;;;;;;5015262;28;20469;-71
2024/03/12 09:25:43;;;;;;;26.20;24.80;;;;;;;;;;5015860;28;20556;-70
2024/03/12 09:28:10;;;;;;;24.93;23.67;;;;;;;;;;5013221;28;20462;-71
2024/03/12 09:30:38;;;;;;;25.53;24.23;;;;;;;;;;5012164;28;20466;-72
2024/03/12 09:33:05;;;;;;;26.07;24.67;;;;;;;;;;5013677;28;20468;-72
2024/03/12 09:35:37;;;;;;;24.70;23.40;;;;;;;;;;5013318;28;20461;-73
2024/03/12 09:38:09;;;;;;;24.87;23.57;;;;;;;;;;5015150;28;20498;-71
2024/03/12 09:40:36;;;;;;;23.33;22.13;;;;;;;;;;5011876;28;20462;-72
2024/03/12 09:43:05;;;;;;;23.33;22.13;;;;;;;;;;5014617;28;21062;-72
2024/03/12 09:45:32;;;;;;;23.47;22.17;;;;;;;;;;5012358;28;20960;-73
2024/03/12 09:48:00;;;;;;;22.50;21.30;;;;;;;;;;5008831;28;20855;-72
2024/03/12 09:50:29;;;;;;;24.47;23.07;;;;;;;;;;5010455;28;20463;-71
2024/03/12 09:52:58;;;;;;;24.20;22.90;;;;;;;;;;5008827;28;20506;-71
2024/03/12 09:55:27;;;;;;;22.50;21.30;;;;;;;;;;5015902;28;20581;-71
2024/03/12 09:57:54;;;;;;;21.90;20.70;;;;;;;;;;5015998;28;21112;-73
2024/03/12 10:00:24;;;;;;;21.93;20.73;;;;;;;;;;5013470;28;20496;-72
2024/03/12 10:02:52;;;;;;;20.63;19.53;;;;;;;;;;5011678;28;21322;-71
2024/03/12 10:05:21;;;;;;;21.43;20.23;;;;;;;;;;5015501;28;20464;-71
2024/03/12 10:08:12;;;;;;;20.67;19.57;;;;;;;;;;5010825;28;20568;-71
2024/03/12 10:10:40;;;;;;;20.17;19.07;;;;;;;;;;5012123;28;20485;-73
2024/03/12 10:13:08;;;;;;;20.87;19.77;;;;;;;;;;5013733;28;21496;-73
2024/03/12 10:15:37;;;;;;;21.33;20.13;;;;;;;;;;5014083;28;20597;-73
2024/03/12 10:18:07;;;;;;;20.13;19.03;;;;;;;;;;5012049;28;20469;-71
2024/03/12 10:20:45;;;;;;;19.80;18.70;;;;;;;;;;5013075;28;20544;-71
2024/03/12 10:23:15;;;;;;;18.40;17.50;;;;;;;;;;5010246;28;20481;-71
2024/03/12 10:25:44;;;;;;;19.00;18.00;;;;;;;;;;5015379;28;20461;-71
2024/03/12 10:28:14;;;;;;;18.70;17.80;;;;;;;;;;5014359;28;20472;-71
2024/03/12 10:30:42;;;;;;;17.90;17.00;;;;;;;;;;5008839;28;20575;-70
2024/03/12 10:33:13;;;;;;;17.70;16.80;;;;;;;;;;5015779;28;20488;-70
2024/03/12 10:35:41;;;;;;;16.90;16.10;;;;;;;;;;5017049;28;21107;-70
2024/03/12 10:38:11;;;;;;;17.30;16.50;;;;;;;;;;5012057;28;20892;-70
2024/03/12 10:40:39;;;;;;;16.27;15.57;;;;;;;;;;5016770;28;20818;-73
2024/03/12 10:43:08;;;;;;;16.20;15.50;;;;;;;;;;5015370;28;20465;-71
2024/03/12 10:45:35;;;;;;;15.93;15.23;;;;;;;;;;5012706;28;20956;-71
2024/03/12 10:48:06;;;;;;;15.37;14.77;;;;;;;;;;5011811;28;20549;-70
2024/03/12 10:50:34;;;;;;;15.60;15.00;;;;;;;;;;5016409;28;20457;-72
2024/03/12 10:53:01;;;;;;;15.50;14.90;;;;;;;;;;5014642;28;21001;-71
2024/03/12 10:55:32;;;;;;;15.03;14.43;;;;;;;;;;5015909;28;20527;-71
2024/03/12 10:58:04;;;;;;;14.63;14.03;;;;;;;;;;5013071;28;20488;-72
2024/03/12 11:00:31;;;;;;;15.03;14.43;;;;;;;;;;5012235;28;20474;-71
2024/03/12 11:02:58;;;;;;;14.07;13.57;;;;;;;;;;5016297;28;20944;-72
2024/03/12 11:05:27;;;;;;;13.70;13.20;;;;;;;;;;5017234;28;20537;-71
2024/03/12 11:07:57;;;;;;;13.80;13.30;;;;;;;;;;5010165;28;20587;-71
2024/03/12 11:10:26;;;;;;;14.10;13.60;;;;;;;;;;5014068;28;20470;-71
2024/03/12 11:12:55;;;;;;;14.10;13.60;;;;;;;;;;5015003;28;20520;-72
2024/03/12 11:15:24;;;;;;;13.97;13.47;;;;;;;;;;5014992;28;20524;-73
2024/03/12 11:17:51;;;;;;;13.37;12.97;;;;;;;;;;5011851;28;20456;-72
2024/03/12 11:20:22;;;;;;;13.30;12.90;;;;;;;;;;5014694;28;20468;-71
2024/03/12 11:22:50;;;;;;;14.80;14.30;;;;;;;;;;5014670;28;20461;-71
2024/03/12 11:25:27;;;;;;;14.40;13.90;;;;;;;;;;5014771;28;20474;-71
2024/03/12 11:28:20;;;;;;;14.43;13.93;;;;;;;;;;5010113;28;20557;-71
2024/03/12 11:30:49;;;;;;;13.80;13.30;;;;;;;;;;5016305;28;20473;-73
2024/03/12 11:33:35;;;;;;;13.67;13.17;;;;;;;;;;5012009;28;20469;-73
2024/03/12 11:36:04;;;;;;;13.00;12.60;;;;;;;;;;5013120;28;20465;-74
2024/03/12 11:38:32;;;;;;;14.00;13.50;;;;;;;;;;5014630;28;20469;-71
2024/03/12 11:41:02;;;;;;;13.07;12.67;;;;;;;;;;5014062;28;20471;-71
2024/03/12 11:43:37;;;;;;;13.50;13.10;;;;;;;;;;5014575;28;20935;-71
2024/03/12 11:46:06;;;;;;;13.13;12.73;;;;;;;;;;5012675;28;20461;-72
2024/03/12 11:48:35;;;;;;;13.30;12.90;;;;;;;;;;5011831;28;20463;-71
2024/03/12 11:51:03;;;;;;;13.57;13.17;;;;;;;;;;5014743;28;20472;-71
2024/03/12 11:53:31;;;;;;;13.60;13.20;;;;;;;;;;5013854;28;20471;-72
2024/03/12 11:56:00;;;;;;;13.90;13.40;;;;;;;;;;5012729;28;20496;-72
2024/03/12 11:58:28;;;;;;;13.70;13.20;;;;;;;;;;5016062;28;20485;-71
2024/03/12 12:00:55;;;;;;;13.67;13.27;;;;;;;;;;5015177;28;21000;-71
2024/03/12 12:03:24;;;;;;;14.30;13.80;;;;;;;;;;5014652;28;20554;-71
2024/03/12 12:05:50;;;;;;;14.10;13.60;;;;;;;;;;5019292;28;20471;-71
2024/03/12 12:08:18;;;;;;;14.00;13.50;;;;;;;;;;5018878;28;20970;-71
2024/03/12 12:10:57;;;;;;;14.70;14.20;;;;;;;;;;5018753;28;20520;-71
2024/03/12 12:13:25;;;;;;;14.27;13.77;;;;;;;;;;5011403;28;20562;-72
2024/03/12 12:15:59;;;;;;;14.20;13.70;;;;;;;;;;5018319;28;20482;-70
2024/03/12 12:18:29;;;;;;;14.50;14.00;;;;;;;;;;5013781;28;21089;-71
2024/03/12 12:20:57;;;;;;;14.40;13.90;;;;;;;;;;5016575;28;20511;-71
2024/03/12 12:23:25;;;;;;;14.80;14.30;;;;;;;;;;5015081;28;20454;-71
2024/03/12 12:25:54;;;;;;;14.80;14.30;;;;;;;;;;5018577;28;20566;-71
2024/03/12 12:28:22;;;;;;;14.50;14.00;;;;;;;;;;5017054;28;20453;-73
2024/03/12 12:30:50;;;;;;;14.73;14.23;;;;;;;;;;5018583;28;20887;-73
2024/03/12 12:33:17;;;;;;;15.07;14.47;;;;;;;;;;5019453;28;20471;-72
2024/03/12 12:35:47;;;;;;;15.07;14.47;;;;;;;;;;5015715;28;20781;-71
2024/03/12 12:38:16;;;;;;;14.93;14.40;;;;;;;;;;5014140;28;20461;-73
2024/03/12 12:40:44;;;;;;;15.23;14.63;;;;;;;;;;5017648;28;20464;-71
2024/03/12 12:43:16;;;;;;;15.00;14.50;;;;;;;;;;5018286;28;20960;-71
2024/03/12 12:45:44;;;;;;;14.23;13.73;;;;;;;;;;5018083;28;20990;-72
2024/03/12 12:48:12;;;;;;;14.97;14.47;;;;;;;;;;5014245;28;20469;-71
2024/03/12 12:50:39;;;;;;;14.50;14.00;;;;;;;;;;5018284;28;20463;-72
2024/03/12 12:53:09;;;;;;;14.93;14.43;;;;;;;;;;5018429;28;20841;-72
2024/03/12 12:55:37;;;;;;;14.70;14.20;;;;;;;;;;5015369;28;20609;-72
2024/03/12 12:58:06;;;;;;;14.40;13.90;;;;;;;;;;5012990;28;20487;-72
2024/03/12 13:00:35;;;;;;;14.60;14.10;;;;;;;;;;5015293;28;20462;-71
2024/03/12 13:03:19;;;;;;;14.40;13.90;;;;;;;;;;5015720;28;20473;-72
2024/03/12 13:05:46;;;;;;;13.97;13.47;;;;;;;;;;5018814;28;20458;-72
2024/03/12 13:08:26;;;;;;;14.63;14.13;;;;;;;;;;5017622;28;20462;-72
2024/03/12 13:10:59;;;;;;;13.97;13.47;;;;;;;;;;5018483;28;20519;-72
2024/03/12 13:13:27;;;;;;;14.97;14.40;;;;;;;;;;5024574;28;20590;-72
2024/03/12 13:15:55;;;;;;;15.17;14.57;;;;;;;;;;5026209;28;21038;-71
2024/03/12 13:18:22;;;;;;;15.17;14.57;;;;;;;;;;5019764;28;20868;-72
2024/03/12 13:20:51;;;;;;;14.70;14.20;;;;;;;;;;5027529;28;20465;-71
2024/03/12 13:23:19;;;;;;;14.60;14.10;;;;;;;;;;5029313;28;20896;-72
2024/03/12 13:25:47;;;;;;;14.43;13.93;;;;;;;;;;5019123;28;20900;-72
2024/03/12 13:28:15;;;;;;;14.30;13.80;;;;;;;;;;5023832;28;20460;-71
2024/03/12 13:30:46;;;;;;;14.67;14.17;;;;;;;;;;5023624;28;20460;-72
2024/03/12 13:33:13;;;;;;;14.43;13.93;;;;;;;;;;5032115;28;20880;-71
2024/03/12 13:35:43;;;;;;;14.00;13.50;;;;;;;;;;5020083;28;20495;-73
2024/03/12 13:38:14;;;;;;;14.13;13.63;;;;;;;;;;5022191;28;20492;-71
2024/03/12 13:40:41;;;;;;;14.23;13.73;;;;;;;;;;5027824;28;20455;-70
2024/03/12 13:43:10;;;;;;;13.90;13.40;;;;;;;;;;5025610;28;20461;-72
2024/03/12 13:45:38;;;;;;;14.00;13.50;;;;;;;;;;5024565;28;20589;-72
2024/03/12 13:48:06;;;;;;;14.40;13.90;;;;;;;;;;5022111;28;20469;-71
2024/03/12 13:50:33;;;;;;;14.53;14.03;;;;;;;;;;5022747;28;21063;-72
2024/03/12 13:53:01;;;;;;;14.50;14.00;;;;;;;;;;5024918;28;20460;-72
2024/03/12 13:55:28;;;;;;;14.10;13.60;;;;;;;;;;5027036;28;20856;-71
2024/03/12 13:57:56;;;;;;;14.73;14.23;;;;;;;;;;5022378;28;21026;-71
2024/03/12 14:00:26;;;;;;;14.30;13.80;;;;;;;;;;5025325;28;20459;-72
2024/03/12 14:02:53;;;;;;;14.50;14.00;;;;;;;;;;5024491;28;20557;-71
2024/03/12 14:05:21;;;;;;;14.50;14.00;;;;;;;;;;5024855;28;20463;-71
2024/03/12 14:07:50;;;;;;;14.17;13.67;;;;;;;;;;5021492;28;20475;-71
2024/03/12 14:10:18;;;;;;;14.93;14.43;;;;;;;;;;5023535;28;20462;-72
2024/03/12 14:12:46;;;;;;;15.07;14.47;;;;;;;;;;5021383;28;20516;-72
2024/03/12 14:15:13;;;;;;;14.90;14.40;;;;;;;;;;5022569;28;20518;-70
2024/03/12 14:17:41;;;;;;;14.83;14.33;;;;;;;;;;5028143;28;20460;-71
2024/03/12 14:20:14;;;;;;;14.33;13.83;;;;;;;;;;5022453;28;20494;-71
2024/03/12 14:22:43;;;;;;;14.20;13.70;;;;;;;;;;5022317;28;20452;-71
2024/03/12 14:25:12;;;;;;;14.63;14.13;;;;;;;;;;5019132;28;20530;-72
2024/03/12 14:27:39;;;;;;;14.50;14.00;;;;;;;;;;5021872;28;20467;-71
2024/03/12 14:30:09;;;;;;;14.73;14.23;;;;;;;;;;5022513;28;20479;-71